Time;durP1;ratioP1;P1;durP2;ratioP2;P2;SDS_P1;SDS_P2;PMS_P1;PMS_P2;Temp;Humidity;BMP_temperature;BMP_pressure;BME280_temperature;BME280_humidity;BME280_pressure;Samples;Min_cycle;Max_cycle;Signal;HPM_P1;HPM_P2
2023/08/13 00:02:29;;;;;;;3.93;3.53;;;19.20;99.90;;;;;;8316747;28;20379;-68
2023/08/13 00:06:30;;;;;;;3.37;3.07;;;19.10;99.90;;;;;;8324553;28;20205;-67
2023/08/13 00:10:31;;;;;;;3.87;3.40;;;19.10;99.90;;;;;;8317564;28;20625;-68
2023/08/13 00:14:32;;;;;;;5.27;3.47;;;19.10;99.90;;;;;;8317831;28;20186;-67
2023/08/13 00:18:33;;;;;;;5.70;3.67;;;19.10;99.90;;;;;;8321969;28;20217;-67
2023/08/13 00:22:34;;;;;;;5.10;3.30;;;19.10;99.90;;;;;;8321365;28;20197;-67
2023/08/13 00:26:36;;;;;;;6.60;3.87;;;19.20;99.90;;;;;;8320024;28;20213;-65
2023/08/13 00:30:37;;;;;;;4.73;3.47;;;19.30;99.90;;;;;;8320481;28;20178;-66
2023/08/13 00:34:38;;;;;;;3.67;3.00;;;19.40;99.90;;;;;;8320605;28;20191;-65
2023/08/13 00:38:39;;;;;;;4.97;3.33;;;19.60;99.90;;;;;;8316860;28;20193;-66
2023/08/13 00:42:40;;;;;;;3.53;3.20;;;19.70;99.90;;;;;;8320817;28;20260;-66
2023/08/13 00:46:41;;;;;;;3.67;3.03;;;19.70;99.90;;;;;;8334422;28;20194;-69
2023/08/13 00:50:44;;;;;;;3.13;2.83;;;19.80;99.90;;;;;;8328972;28;20177;-68
2023/08/13 00:54:45;;;;;;;4.37;3.20;;;19.90;99.90;;;;;;8318686;28;20201;-68
2023/08/13 00:58:46;;;;;;;3.73;2.70;;;20.00;99.90;;;;;;8316404;28;20199;-66
2023/08/13 01:02:48;;;;;;;3.97;2.73;;;20.00;99.90;;;;;;8318908;28;20277;-67
2023/08/13 01:07:03;;;;;;;7.70;3.20;;;20.00;85.00;;;;;;8310022;28;20190;-69
2023/08/13 01:11:17;;;;;;;4.07;2.70;;;20.00;38.50;;;;;;8320240;28;20206;-67
2023/08/13 01:15:38;;;;;;;3.57;2.63;;;20.00;29.70;;;;;;8318036;28;20182;-66
2023/08/13 01:19:38;;;;;;;2.30;2.10;;;19.90;28.80;;;;;;8325144;28;20187;-66
2023/08/13 01:23:39;;;;;;;2.50;2.13;;;19.90;28.60;;;;;;8320623;28;20213;-68
2023/08/13 01:28:12;;;;;;;2.47;2.27;;;19.90;26.50;;;;;;8319122;28;20190;-67
2023/08/13 01:32:16;;;;;;;2.40;2.20;;;19.90;26.80;;;;;;8320375;28;20186;-68
2023/08/13 01:36:18;;;;;;;2.70;1.80;;;19.80;28.20;;;;;;8320697;28;20190;-67
2023/08/13 01:40:19;;;;;;;3.37;2.47;;;19.80;33.30;;;;;;8323379;28;20251;-67
2023/08/13 01:44:20;;;;;;;4.20;2.40;;;19.90;48.10;;;;;;8316770;28;20221;-66
2023/08/13 01:48:21;;;;;;;3.07;2.13;;;20.00;36.30;;;;;;8318830;28;20356;-67
2023/08/13 01:52:22;;;;;;;5.67;2.50;;;20.00;18.60;;;;;;8320154;28;20194;-64
2023/08/13 01:56:22;;;;;;;3.40;2.10;;;20.10;1.00;;;;;;8316725;28;20311;-66
2023/08/13 02:00:23;;;;;;;3.90;2.07;;;20.20;1.00;;;;;;8323636;28;20309;-65
2023/08/13 02:04:24;;;;;;;2.63;1.90;;;20.30;1.00;;;;;;8317416;28;20255;-64
2023/08/13 02:08:24;;;;;;;2.33;1.90;;;20.40;1.00;;;;;;8321959;28;20301;-65
2023/08/13 02:12:25;;;;;;;2.77;2.10;;;20.50;1.00;;;;;;8320060;28;20186;-68
2023/08/13 02:16:26;;;;;;;4.10;2.10;;;20.50;1.00;;;;;;8315236;28;20186;-66
2023/08/13 02:20:27;;;;;;;3.97;2.33;;;20.60;1.00;;;;;;8315256;28;20186;-68
2023/08/13 02:24:28;;;;;;;3.80;2.17;;;20.70;1.00;;;;;;8324184;28;20202;-66
2023/08/13 02:28:29;;;;;;;2.93;1.77;;;20.80;1.00;;;;;;8313171;28;20253;-65
2023/08/13 02:32:30;;;;;;;2.70;1.80;;;20.80;1.00;;;;;;8309607;28;20231;-65
2023/08/13 02:36:30;;;;;;;4.67;1.47;;;20.90;1.00;;;;;;8315237;28;20202;-65
2023/08/13 02:40:31;;;;;;;2.53;2.03;;;20.90;1.00;;;;;;8319941;28;20305;-66
2023/08/13 02:44:32;;;;;;;2.33;1.77;;;20.90;1.00;;;;;;8315324;28;21537;-66
2023/08/13 02:48:32;;;;;;;3.07;1.87;;;20.90;1.00;;;;;;8331780;28;20186;-68
2023/08/13 02:52:33;;;;;;;3.10;2.07;;;20.90;1.00;;;;;;8315071;28;20193;-69
2023/08/13 02:56:34;;;;;;;3.23;2.40;;;20.90;1.00;;;;;;8322933;28;20292;-68
2023/08/13 03:00:34;;;;;;;3.50;1.97;;;20.90;1.00;;;;;;8321921;28;20193;-66
2023/08/13 03:04:35;;;;;;;2.27;1.83;;;20.90;1.00;;;;;;8322544;28;20759;-65
2023/08/13 03:08:36;;;;;;;3.50;1.90;;;20.80;1.00;;;;;;8321121;28;20202;-67
2023/08/13 03:12:36;;;;;;;3.47;1.97;;;20.80;1.00;;;;;;8322906;28;20187;-67
2023/08/13 03:16:37;;;;;;;6.20;2.00;;;20.70;1.00;;;;;;8325827;28;20197;-66
2023/08/13 03:20:38;;;;;;;3.47;1.80;;;20.70;1.00;;;;;;8325573;28;20206;-65
2023/08/13 03:24:38;;;;;;;4.70;2.20;;;20.50;1.00;;;;;;8319454;28;20213;-67
2023/08/13 03:28:39;;;;;;;3.93;1.83;;;20.40;1.00;;;;;;8317504;28;20295;-69
2023/08/13 03:32:40;;;;;;;3.37;2.00;;;20.30;12.30;;;;;;8322891;28;20249;-69
2023/08/13 03:36:40;;;;;;;3.43;2.27;;;20.20;41.10;;;;;;8329615;28;20183;-68
2023/08/13 03:40:41;;;;;;;3.00;2.00;;;20.20;94.80;;;;;;8330675;28;20186;-68
2023/08/13 03:44:42;;;;;;;2.73;1.90;;;20.10;99.90;;;;;;8329451;28;20217;-68
2023/08/13 03:48:43;;;;;;;2.97;1.90;;;20.00;99.90;;;;;;8324836;28;20182;-66
2023/08/13 03:52:43;;;;;;;2.80;2.03;;;20.00;99.90;;;;;;8322835;28;20197;-61
2023/08/13 03:56:44;;;;;;;2.40;2.20;;;19.90;99.90;;;;;;8324704;28;20251;-64
2023/08/13 04:00:45;;;;;;;2.20;1.83;;;19.90;99.90;;;;;;8318509;28;20185;-62
2023/08/13 04:04:45;;;;;;;2.40;1.90;;;19.90;99.90;;;;;;8318966;28;20210;-64
2023/08/13 04:08:47;;;;;;;3.27;1.83;;;19.90;99.90;;;;;;8323528;28;20236;-64
2023/08/13 04:12:47;;;;;;;4.10;2.37;;;19.90;99.90;;;;;;8320632;28;20246;-64
2023/08/13 04:16:48;;;;;;;3.07;1.80;;;20.10;99.90;;;;;;8322895;28;20186;-62
2023/08/13 04:20:49;;;;;;;2.67;2.00;;;20.40;99.90;;;;;;8326011;28;20217;-62
2023/08/13 04:24:50;;;;;;;2.80;1.90;;;20.50;99.90;;;;;;8320467;28;20222;-63
2023/08/13 04:28:51;;;;;;;3.30;2.07;;;20.90;44.70;;;;;;8316407;28;20212;-64
2023/08/13 04:32:56;;;;;;;2.40;2.00;;;21.40;1.00;;;;;;8317376;28;20195;-65
2023/08/13 04:36:56;;;;;;;2.80;2.03;;;21.70;1.00;;;;;;8322855;28;20201;-63
2023/08/13 04:40:57;;;;;;;3.87;1.90;;;22.10;1.00;;;;;;8319556;28;21011;-64
2023/08/13 04:44:58;;;;;;;4.53;1.80;;;22.30;1.00;;;;;;8315772;28;20205;-64
2023/08/13 04:48:59;;;;;;;4.17;2.27;;;22.50;1.00;;;;;;8321106;28;20247;-63
2023/08/13 04:53:00;;;;;;;2.47;1.97;;;22.70;1.00;;;;;;8320767;28;20186;-63
2023/08/13 04:57:00;;;;;;;3.53;2.00;;;22.90;1.00;;;;;;8319107;28;21012;-62
2023/08/13 05:01:02;;;;;;;2.40;1.90;;;22.80;1.00;;;;;;8322573;28;20284;-69
2023/08/13 05:05:04;;;;;;;2.83;1.83;;;22.90;1.00;;;;;;8312221;28;20648;-67
2023/08/13 05:09:05;;;;;;;4.37;2.10;;;22.70;1.00;;;;;;8319095;28;20776;-65
2023/08/13 05:13:06;;;;;;;2.30;2.10;;;22.50;1.00;;;;;;8319403;28;20186;-66
2023/08/13 05:17:21;;;;;;;3.30;2.00;;;22.30;1.00;;;;;;8319825;28;20192;-66
2023/08/13 05:21:22;;;;;;;5.60;2.20;;;22.20;1.00;;;;;;8316546;28;20187;-66
2023/08/13 05:25:22;;;;;;;3.07;2.27;;;22.00;1.00;;;;;;8319864;28;20263;-68
2023/08/13 05:29:23;;;;;;;2.90;2.13;;;22.00;1.00;;;;;;8312639;28;20189;-69
2023/08/13 05:33:24;;;;;;;4.20;2.30;;;21.90;1.00;;;;;;8319083;28;20190;-66
2023/08/13 05:37:24;;;;;;;3.90;2.33;;;21.90;1.00;;;;;;8317303;28;20212;-68
2023/08/13 05:41:25;;;;;;;4.00;2.60;;;21.90;1.00;;;;;;8317536;28;20516;-67
2023/08/13 05:45:26;;;;;;;2.60;2.23;;;22.10;1.00;;;;;;8312961;28;20213;-67
2023/08/13 05:49:26;;;;;;;2.80;2.20;;;22.50;1.00;;;;;;8312053;28;20193;-67
2023/08/13 05:53:27;;;;;;;3.23;2.60;;;22.50;1.00;;;;;;8318915;28;20194;-66
2023/08/13 05:57:28;;;;;;;5.13;2.70;;;22.60;1.00;;;;;;8317072;28;20190;-66
2023/08/13 06:01:29;;;;;;;2.80;2.50;;;22.60;1.00;;;;;;8318489;28;20284;-67
2023/08/13 06:05:29;;;;;;;3.10;2.80;;;22.50;1.00;;;;;;8318978;28;20209;-68
2023/08/13 06:09:30;;;;;;;4.27;2.90;;;22.50;1.00;;;;;;8309158;28;20209;-64
2023/08/13 06:13:38;;;;;;;3.83;3.07;;;22.60;1.00;;;;;;8311636;28;20272;-63
2023/08/13 06:17:42;;;;;;;4.47;3.37;;;22.70;1.00;;;;;;8314488;28;20194;-62
2023/08/13 06:21:42;;;;;;;3.97;3.17;;;22.60;1.00;;;;;;8323223;28;20214;-65
2023/08/13 06:25:45;;;;;;;3.20;2.90;;;22.70;1.00;;;;;;8323595;28;20209;-63
2023/08/13 06:29:46;;;;;;;6.03;2.97;;;22.80;1.00;;;;;;8309341;28;20190;-62
2023/08/13 06:33:47;;;;;;;3.40;3.07;;;23.00;1.00;;;;;;8319465;28;20210;-64
2023/08/13 06:37:47;;;;;;;4.87;3.20;;;23.20;1.00;;;;;;8322866;28;20182;-64
2023/08/13 06:41:48;;;;;;;5.83;3.37;;;23.00;1.00;;;;;;8318273;28;20189;-62
2023/08/13 06:45:49;;;;;;;3.57;3.20;;;23.00;1.00;;;;;;8312992;28;20509;-63
2023/08/13 06:49:50;;;;;;;3.43;3.10;;;23.10;1.00;;;;;;8327501;28;20239;-65
2023/08/13 06:53:50;;;;;;;3.83;3.27;;;23.30;1.00;;;;;;8318367;28;20757;-63
2023/08/13 06:57:51;;;;;;;4.37;3.80;;;23.50;1.00;;;;;;8317118;28;20193;-63
2023/08/13 07:01:52;;;;;;;4.00;3.53;;;23.80;1.00;;;;;;8323676;28;20301;-64
2023/08/13 07:05:52;;;;;;;4.70;3.17;;;23.90;1.00;;;;;;8322687;28;20274;-63
2023/08/13 07:09:53;;;;;;;3.70;3.17;;;23.90;1.00;;;;;;8321092;28;20278;-62
2023/08/13 07:13:55;;;;;;;3.53;3.23;;;24.20;1.00;;;;;;8322736;28;20189;-63
2023/08/13 07:17:56;;;;;;;3.53;3.23;;;24.30;1.00;;;;;;8314007;28;20190;-65
2023/08/13 07:22:00;;;;;;;2.97;2.70;;;24.40;1.00;;;;;;8325644;28;20707;-64
2023/08/13 07:26:01;;;;;;;4.57;2.93;;;24.40;1.00;;;;;;8322205;28;20221;-66
2023/08/13 07:30:02;;;;;;;3.20;3.00;;;24.20;1.00;;;;;;8315674;28;20207;-66
2023/08/13 07:34:03;;;;;;;3.60;3.30;;;24.20;1.00;;;;;;8304069;28;20227;-67
2023/08/13 07:38:04;;;;;;;3.87;3.33;;;24.10;1.00;;;;;;8310320;28;20189;-66
2023/08/13 07:42:08;;;;;;;3.93;2.90;;;24.00;1.00;;;;;;8311637;28;20186;-69
2023/08/13 07:46:09;;;;;;;3.80;2.97;;;24.00;1.00;;;;;;8309438;28;20225;-68
2023/08/13 07:50:10;;;;;;;3.80;3.13;;;24.50;1.00;;;;;;8312086;28;20185;-67
2023/08/13 07:54:11;;;;;;;3.87;3.50;;;24.50;1.00;;;;;;8306875;28;20200;-67
2023/08/13 07:58:14;;;;;;;3.47;2.83;;;24.20;1.00;;;;;;8320489;28;21371;-67
2023/08/13 08:02:14;;;;;;;3.27;2.80;;;24.20;1.00;;;;;;8322105;28;20834;-65
2023/08/13 08:06:15;;;;;;;3.50;2.83;;;24.50;1.00;;;;;;8319621;28;20221;-67
2023/08/13 08:10:16;;;;;;;3.47;3.17;;;24.50;1.00;;;;;;8316324;28;20356;-67
2023/08/13 08:14:16;;;;;;;2.60;2.40;;;24.60;1.00;;;;;;8312970;28;20232;-67
2023/08/13 08:18:17;;;;;;;4.03;2.70;;;25.00;1.00;;;;;;8304658;28;20309;-64
2023/08/13 08:22:18;;;;;;;2.33;2.10;;;26.00;1.00;;;;;;8317110;28;20201;-66
2023/08/13 08:26:19;;;;;;;2.90;2.55;;;26.70;1.00;;;;;;8320730;28;20210;-66
2023/08/13 08:30:19;;;;;;;3.10;2.80;;;26.70;1.00;;;;;;8331062;28;20296;-67
2023/08/13 08:34:20;;;;;;;2.83;2.40;;;26.50;1.00;;;;;;8322192;28;20547;-66
2023/08/13 08:38:21;;;;;;;4.28;2.42;;;25.90;1.00;;;;;;8314661;28;20283;-65
2023/08/13 08:42:22;;;;;;;2.60;2.40;;;25.20;1.00;;;;;;8317729;28;20487;-64
2023/08/13 08:46:26;;;;;;;3.10;2.13;;;25.00;1.00;;;;;;8321639;28;20260;-65
2023/08/13 08:50:27;;;;;;;2.28;1.40;;;25.40;1.00;;;;;;8324971;28;20179;-66
2023/08/13 08:54:28;;;;;;;1.25;1.15;;;25.90;99.90;;;;;;8322628;28;20848;-66
2023/08/13 08:58:29;;;;;;;7.70;1.63;;;26.30;99.90;;;;;;8317335;28;20188;-66
2023/08/13 09:02:30;;;;;;;2.50;1.08;;;26.70;99.90;;;;;;8325685;28;20189;-66
2023/08/13 09:06:53;;;;;;;4.60;1.70;;;27.20;99.90;;;;;;8326610;28;20211;-66
2023/08/13 09:10:55;;;;;;;1.27;1.17;;;27.90;99.90;;;;;;8320195;28;20600;-64
2023/08/13 09:14:56;;;;;;;3.90;1.67;;;28.10;99.90;;;;;;8320542;28;20198;-67
2023/08/13 09:18:57;;;;;;;2.28;1.70;;;27.90;99.90;;;;;;8318318;28;20224;-65
2023/08/13 09:22:59;;;;;;;1.77;1.67;;;27.40;99.90;;;;;;8309469;28;20213;-63
2023/08/13 09:27:01;;;;;;;2.45;2.17;;;26.60;99.90;;;;;;8312773;28;20723;-66
2023/08/13 09:31:02;;;;;;;2.42;1.80;;;26.80;99.90;;;;;;8316300;28;20179;-64
2023/08/13 09:35:04;;;;;;;2.42;1.95;;;26.80;99.90;;;;;;8311984;28;20191;-64
2023/08/13 09:39:04;;;;;;;4.18;1.67;;;27.00;99.90;;;;;;8320240;28;20612;-68
2023/08/13 09:43:09;;;;;;;3.63;2.00;;;27.30;99.90;;;;;;8317716;28;20197;-68
2023/08/13 09:47:12;;;;;;;2.60;2.03;;;27.70;99.90;;;;;;8306289;28;20206;-66
2023/08/13 09:51:15;;;;;;;2.60;2.40;;;28.00;99.90;;;;;;8311902;28;20186;-67
2023/08/13 09:55:20;;;;;;;2.20;2.00;;;27.10;99.90;;;;;;8327019;28;20190;-67
2023/08/13 09:59:21;;;;;;;11.00;10.30;;;27.00;99.90;;;;;;8314731;28;20186;-68
2023/08/13 10:03:22;;;;;;;2.05;1.85;;;27.60;99.90;;;;;;8314203;28;20232;-66
2023/08/13 10:07:25;;;;;;;2.08;1.88;;;28.00;99.90;;;;;;8319837;28;20198;-67
2023/08/13 10:11:26;;;;;;;1.80;1.67;;;28.30;99.90;;;;;;8316039;28;20205;-69
2023/08/13 10:15:27;;;;;;;2.17;1.98;;;28.30;99.90;;;;;;8315347;28;20190;-69
2023/08/13 10:19:45;;;;;;;2.22;1.58;;;27.30;99.90;;;;;;8314123;28;20186;-65
2023/08/13 10:23:46;;;;;;;1.67;1.58;;;26.40;99.90;;;;;;8317011;28;20209;-65
2023/08/13 10:27:53;;;;;;;1.98;1.83;;;25.80;99.90;;;;;;8328918;28;20197;-68
2023/08/13 10:32:15;;;;;;;2.00;1.80;;;25.60;99.90;;;;;;8329512;28;20209;-66
2023/08/13 10:36:18;;;;;;;2.00;1.60;;;25.50;99.90;;;;;;8312948;28;20289;-67
2023/08/13 10:40:19;;;;;;;1.75;1.60;;;25.80;99.90;;;;;;8326846;28;20216;-66
2023/08/13 10:44:28;;;;;;;1.75;1.65;;;26.30;99.90;;;;;;8317946;28;20249;-65
2023/08/13 10:48:30;;;;;;;1.90;1.67;;;27.00;99.90;;;;;;8319138;28;20600;-66
2023/08/13 10:52:31;;;;;;;1.67;1.58;;;26.60;99.90;;;;;;8327105;28;20193;-65
2023/08/13 10:56:32;;;;;;;1.98;1.65;;;27.20;99.90;;;;;;8323472;28;20190;-65
2023/08/13 11:00:42;;;;;;;2.08;1.40;;;27.90;99.90;;;;;;8323413;28;20288;-65
2023/08/13 11:04:45;;;;;;;1.73;1.52;;;28.70;99.90;;;;;;8325413;28;20218;-65
2023/08/13 11:08:47;;;;;;;2.30;1.85;;;29.30;99.90;;;;;;8343441;28;20595;-66
2023/08/13 11:12:48;;;;;;;2.10;1.85;;;29.40;99.90;;;;;;8325976;28;20304;-64
2023/08/13 11:16:51;;;;;;;1.80;1.70;;;28.90;99.90;;;;;;8328559;28;20682;-64
2023/08/13 11:20:52;;;;;;;2.38;2.17;;;27.50;99.90;;;;;;8321178;28;20198;-65
2023/08/13 11:24:53;;;;;;;2.65;1.70;;;27.10;99.90;;;;;;8319501;28;20266;-65
2023/08/13 11:28:57;;;;;;;2.20;1.77;;;27.40;99.90;;;;;;8316403;28;20186;-64
2023/08/13 11:32:59;;;;;;;2.13;1.80;;;27.90;99.90;;;;;;8326403;28;20209;-66
2023/08/13 11:37:00;;;;;;;1.70;1.55;;;28.20;99.90;;;;;;8322445;28;20190;-67
2023/08/13 11:41:11;;;;;;;1.40;1.30;;;28.90;99.90;;;;;;8327984;28;20254;-65
2023/08/13 11:45:12;;;;;;;1.52;1.42;;;29.70;99.90;;;;;;8324123;28;20210;-65
2023/08/13 11:49:16;;;;;;;1.83;1.35;;;29.00;99.90;;;;;;8325662;28;20220;-65
2023/08/13 11:53:17;;;;;;;3.70;1.48;;;28.70;99.90;;;;;;8322860;28;20620;-62
2023/08/13 11:57:19;;;;;;;1.98;1.45;;;28.90;99.90;;;;;;8324441;28;20258;-67
2023/08/13 12:01:24;;;;;;;1.73;1.60;;;28.80;99.90;;;;;;8332777;28;20224;-65
2023/08/13 12:05:32;;;;;;;2.50;1.90;;;29.20;99.90;;;;;;8328366;28;20218;-67
2023/08/13 12:09:33;;;;;;;1.70;1.60;;;29.40;99.90;;;;;;8331742;28;20202;-66
2023/08/13 12:13:41;;;;;;;2.20;1.40;;;29.70;99.90;;;;;;8328730;28;20315;-64
2023/08/13 12:17:42;;;;;;;2.00;1.50;;;30.00;99.90;;;;;;8328100;28;20194;-63
2023/08/13 12:21:43;;;;;;;1.85;1.70;;;30.10;99.90;;;;;;8320146;28;20296;-63
2023/08/13 12:25:43;;;;;;;1.85;1.55;;;30.20;99.90;;;;;;8322108;28;20293;-67
2023/08/13 12:29:45;;;;;;;2.47;1.80;;;29.50;99.90;;;;;;8326554;28;20201;-67
2023/08/13 12:33:46;;;;;;;2.20;1.73;;;29.30;99.90;;;;;;8331535;28;20185;-68
2023/08/13 12:37:48;;;;;;;3.30;1.70;;;28.70;99.90;;;;;;8321052;28;20193;-66
2023/08/13 12:41:48;;;;;;;1.63;1.52;;;28.50;99.90;;;;;;8327388;28;20217;-67
2023/08/13 12:45:49;;;;;;;2.78;1.23;;;28.30;99.90;;;;;;8330207;28;20237;-65
2023/08/13 12:49:50;;;;;;;1.85;1.65;;;27.80;99.90;;;;;;8325208;28;20183;-63
2023/08/13 12:53:51;;;;;;;1.80;1.70;;;28.10;99.90;;;;;;8330798;28;20197;-64
2023/08/13 12:57:51;;;;;;;2.58;1.90;;;28.70;99.90;;;;;;8325480;28;20236;-66
2023/08/13 13:01:52;;;;;;;2.05;1.65;;;29.10;99.90;;;;;;8326503;28;20186;-65
2023/08/13 13:05:53;;;;;;;2.58;1.80;;;29.10;99.90;;;;;;8322755;28;20688;-66
2023/08/13 13:09:54;;;;;;;2.03;1.83;;;28.90;99.90;;;;;;8329030;28;20213;-63
2023/08/13 13:13:56;;;;;;;1.70;1.60;;;29.10;99.90;;;;;;8325889;28;20205;-63
2023/08/13 13:17:57;;;;;;;1.67;1.58;;;29.00;99.90;;;;;;8327948;28;20182;-62
2023/08/13 13:21:58;;;;;;;2.22;1.88;;;28.70;99.90;;;;;;8327739;28;20402;-64
2023/08/13 13:25:58;;;;;;;1.70;1.60;;;28.60;99.90;;;;;;8326479;28;20217;-66
2023/08/13 13:30:01;;;;;;;2.05;1.90;;;28.30;99.90;;;;;;8327437;28;20546;-66
2023/08/13 13:34:02;;;;;;;1.75;1.65;;;28.20;99.90;;;;;;8328290;28;20190;-63
2023/08/13 13:38:03;;;;;;;2.50;2.00;;;28.20;99.90;;;;;;8324282;28;20197;-65
2023/08/13 13:42:03;;;;;;;1.98;1.77;;;28.10;99.90;;;;;;8329563;28;20234;-66
2023/08/13 13:46:04;;;;;;;3.28;1.88;;;28.20;99.90;;;;;;8325226;28;20214;-63
2023/08/13 13:50:05;;;;;;;2.17;1.98;;;28.40;99.90;;;;;;8325276;28;20213;-65
2023/08/13 13:54:06;;;;;;;3.38;1.80;;;28.70;99.90;;;;;;8318278;28;20186;-64
2023/08/13 13:58:08;;;;;;;2.28;1.77;;;28.50;99.90;;;;;;8325338;28;20186;-64
2023/08/13 14:02:09;;;;;;;1.70;1.60;;;28.50;99.90;;;;;;8322388;28;20198;-65
2023/08/13 14:06:10;;;;;;;2.25;1.60;;;28.50;99.90;;;;;;8320544;28;20216;-65
2023/08/13 14:10:11;;;;;;;2.00;1.80;;;28.50;99.90;;;;;;8320973;28;20198;-63
2023/08/13 14:14:12;;;;;;;1.90;1.63;;;28.60;99.90;;;;;;8331283;28;20217;-64
2023/08/13 14:18:13;;;;;;;2.20;2.00;;;28.60;99.90;;;;;;8330998;28;20182;-65
2023/08/13 14:22:14;;;;;;;1.70;1.60;;;28.60;99.90;;;;;;8321991;28;20192;-66
2023/08/13 14:26:15;;;;;;;1.80;1.50;;;28.60;99.90;;;;;;8318337;28;20217;-66
2023/08/13 14:30:16;;;;;;;2.10;1.90;;;28.40;99.90;;;;;;8317958;28;20189;-66
2023/08/13 14:34:17;;;;;;;1.83;1.70;;;28.20;99.90;;;;;;8322226;28;20179;-67
2023/08/13 14:38:21;;;;;;;1.70;1.58;;;28.40;99.90;;;;;;8318664;28;20208;-68
2023/08/13 14:42:22;;;;;;;1.77;1.67;;;28.40;99.90;;;;;;8324937;28;20213;-64
2023/08/13 14:46:22;;;;;;;2.08;1.80;;;28.20;99.90;;;;;;8317182;28;20209;-64
2023/08/13 14:50:23;;;;;;;2.72;1.77;;;28.00;99.90;;;;;;8319150;28;20542;-68
2023/08/13 14:54:24;;;;;;;2.20;2.00;;;28.00;99.90;;;;;;8320625;28;20209;-66
2023/08/13 14:58:25;;;;;;;3.45;1.88;;;27.80;99.90;;;;;;8317381;28;20197;-66
2023/08/13 15:02:25;;;;;;;1.73;1.63;;;27.60;99.90;;;;;;8312427;28;20263;-65
2023/08/13 15:06:26;;;;;;;1.83;1.70;;;27.60;99.90;;;;;;8314910;28;20353;-66
2023/08/13 15:10:27;;;;;;;2.05;1.77;;;27.70;99.90;;;;;;8318748;28;20202;-66
2023/08/13 15:14:28;;;;;;;8.68;4.65;;;27.90;99.90;;;;;;8321091;28;20188;-65
2023/08/13 15:18:29;;;;;;;3.42;2.22;;;28.00;99.90;;;;;;8322531;28;20193;-66
2023/08/13 15:22:29;;;;;;;2.67;1.50;;;28.00;99.90;;;;;;8324078;28;20248;-66
2023/08/13 15:26:30;;;;;;;2.47;2.00;;;28.10;99.90;;;;;;8320329;28;20217;-65
2023/08/13 15:30:31;;;;;;;2.22;2.00;;;28.10;99.90;;;;;;8325222;28;20534;-63
2023/08/13 15:34:32;;;;;;;2.33;1.90;;;28.40;99.90;;;;;;8325120;28;20197;-64
2023/08/13 15:38:33;;;;;;;1.90;1.70;;;28.40;99.90;;;;;;8325610;28;20186;-64
2023/08/13 15:42:35;;;;;;;3.83;1.98;;;28.30;99.90;;;;;;8323612;28;20271;-63
2023/08/13 15:46:35;;;;;;;2.08;1.63;;;28.50;99.90;;;;;;8324749;28;20214;-63
2023/08/13 15:50:36;;;;;;;2.35;1.85;;;28.70;99.90;;;;;;8319640;28;20189;-63
2023/08/13 15:54:37;;;;;;;2.22;2.03;;;28.70;99.90;;;;;;8326397;28;20246;-64
2023/08/13 15:58:38;;;;;;;2.60;1.73;;;28.50;99.90;;;;;;8322422;28;20179;-63
2023/08/13 16:02:40;;;;;;;2.28;1.90;;;28.10;99.90;;;;;;8321082;28;20186;-64
2023/08/13 16:06:41;;;;;;;1.90;1.80;;;27.90;99.90;;;;;;8330007;28;20242;-65
2023/08/13 16:10:42;;;;;;;4.53;1.83;;;28.00;99.90;;;;;;8320836;28;20225;-64
2023/08/13 16:14:43;;;;;;;2.17;1.95;;;28.20;99.90;;;;;;8317520;28;20197;-65
2023/08/13 16:18:44;;;;;;;1.65;1.55;;;28.20;99.90;;;;;;8311961;28;20205;-65
2023/08/13 16:22:45;;;;;;;2.83;1.90;;;28.10;99.90;;;;;;8321986;28;20251;-65
2023/08/13 16:26:45;;;;;;;2.30;1.90;;;27.90;99.90;;;;;;8339309;28;20226;-63
2023/08/13 16:30:46;;;;;;;2.45;2.00;;;27.90;99.90;;;;;;8324967;28;20190;-64
2023/08/13 16:34:47;;;;;;;4.30;2.60;;;27.80;99.90;;;;;;8323591;28;20377;-62
2023/08/13 16:38:48;;;;;;;3.53;2.38;;;27.60;99.90;;;;;;8317431;28;20204;-64
2023/08/13 16:42:48;;;;;;;2.65;2.45;;;27.40;99.90;;;;;;8323638;28;20186;-66
2023/08/13 16:46:49;;;;;;;19.48;15.35;;;27.30;99.90;;;;;;8327630;28;20500;-66
2023/08/13 16:50:50;;;;;;;4.25;2.15;;;27.20;99.90;;;;;;8323506;28;20198;-66
2023/08/13 16:54:51;;;;;;;5.20;2.67;;;27.10;99.90;;;;;;8328616;28;20583;-66
2023/08/13 16:58:52;;;;;;;2.40;2.17;;;27.10;99.90;;;;;;8322843;28;20210;-66
2023/08/13 17:02:52;;;;;;;4.90;2.38;;;27.10;99.90;;;;;;8324910;28;20235;-65
2023/08/13 17:06:53;;;;;;;2.78;2.55;;;27.00;99.90;;;;;;8327928;28;20210;-66
2023/08/13 17:10:54;;;;;;;3.42;2.40;;;26.90;99.90;;;;;;8322664;28;20201;-65
2023/08/13 17:14:55;;;;;;;2.40;2.20;;;27.00;99.90;;;;;;8321350;28;20190;-65
2023/08/13 17:18:56;;;;;;;2.60;2.40;;;27.00;99.90;;;;;;8323046;28;20551;-64
2023/08/13 17:22:57;;;;;;;3.20;2.33;;;26.90;99.90;;;;;;8322086;28;20308;-65
2023/08/13 17:26:57;;;;;;;4.10;2.95;;;26.70;99.90;;;;;;8321641;28;20209;-65
2023/08/13 17:30:58;;;;;;;3.60;2.92;;;26.60;99.90;;;;;;8320314;28;20188;-65
2023/08/13 17:34:59;;;;;;;4.28;3.58;;;26.40;99.90;;;;;;8317072;28;21982;-65
2023/08/13 17:39:00;;;;;;;5.40;3.35;;;26.20;99.90;;;;;;8326867;28;20182;-65
2023/08/13 17:43:01;;;;;;;3.92;3.60;;;26.10;99.90;;;;;;8320152;28;20237;-65
2023/08/13 17:47:01;;;;;;;4.07;3.60;;;25.90;99.90;;;;;;8324599;28;20216;-66
2023/08/13 17:51:02;;;;;;;3.90;3.20;;;25.80;99.90;;;;;;8324466;28;20181;-64
2023/08/13 17:55:03;;;;;;;7.35;4.60;;;25.60;99.90;;;;;;8322542;28;20427;-63
2023/08/13 17:59:04;;;;;;;5.90;4.53;;;25.40;99.90;;;;;;8317918;28;20200;-64
2023/08/13 18:03:04;;;;;;;4.93;4.27;;;25.20;99.90;;;;;;8317205;28;20225;-64
2023/08/13 18:07:05;;;;;;;7.07;6.07;;;25.00;99.90;;;;;;8319859;28;20221;-63
2023/08/13 18:11:06;;;;;;;6.10;5.50;;;24.80;99.90;;;;;;8321782;28;20197;-64
2023/08/13 18:15:07;;;;;;;5.87;4.70;;;24.60;99.90;;;;;;8320972;28;20182;-64
2023/08/13 18:19:08;;;;;;;4.47;4.00;;;24.30;1.00;;;;;;8320372;28;20198;-65
2023/08/13 18:23:10;;;;;;;4.10;3.70;;;24.10;1.00;;;;;;8320568;28;20181;-64
2023/08/13 18:27:10;;;;;;;3.63;3.33;;;23.80;1.00;;;;;;8315331;28;20214;-64
2023/08/13 18:31:11;;;;;;;3.47;3.17;;;23.50;1.00;;;;;;8321521;28;20555;-64
2023/08/13 18:35:12;;;;;;;3.70;3.23;;;23.30;1.00;;;;;;8316118;28;20193;-64
2023/08/13 18:39:13;;;;;;;5.50;4.47;;;23.20;1.00;;;;;;8321623;28;20296;-64
2023/08/13 18:43:14;;;;;;;5.50;4.53;;;23.00;1.00;;;;;;8321844;28;20296;-64
2023/08/13 18:47:15;;;;;;;4.90;3.93;;;22.80;1.00;;;;;;8314210;28;20213;-64
2023/08/13 18:51:15;;;;;;;4.30;3.90;;;22.70;1.00;;;;;;8325368;28;20194;-64
2023/08/13 18:55:17;;;;;;;3.63;3.33;;;22.50;1.00;;;;;;8322663;28;20396;-64
2023/08/13 18:59:18;;;;;;;3.77;3.33;;;22.40;1.00;;;;;;8315976;28;20213;-66
2023/08/13 19:03:18;;;;;;;4.67;3.93;;;22.30;1.00;;;;;;8324148;28;20194;-66
2023/08/13 19:07:19;;;;;;;5.43;4.93;;;22.20;1.00;;;;;;8320960;28;20216;-65
2023/08/13 19:11:20;;;;;;;4.43;4.03;;;22.10;1.00;;;;;;8329192;28;20220;-66
2023/08/13 19:15:24;;;;;;;4.43;3.50;;;21.90;23.50;;;;;;8310822;28;20228;-66
2023/08/13 19:19:24;;;;;;;5.17;3.60;;;21.80;59.50;;;;;;8326219;28;20191;-64
2023/08/13 19:23:25;;;;;;;4.77;3.50;;;21.80;93.60;;;;;;8316915;28;20198;-63
2023/08/13 19:27:26;;;;;;;4.07;3.53;;;21.70;99.90;;;;;;8323102;28;20194;-64
2023/08/13 19:31:27;;;;;;;4.23;3.47;;;21.70;99.90;;;;;;8327294;28;20217;-64
2023/08/13 19:35:28;;;;;;;3.77;3.47;;;21.60;99.90;;;;;;8328778;28;20301;-64
2023/08/13 19:39:29;;;;;;;3.63;3.33;;;21.50;99.90;;;;;;8325101;28;20178;-63
2023/08/13 19:43:30;;;;;;;4.93;4.00;;;21.40;99.90;;;;;;8327118;28;20186;-63
2023/08/13 19:47:31;;;;;;;4.10;3.73;;;21.30;99.90;;;;;;8317445;28;20200;-64
2023/08/13 19:51:31;;;;;;;4.13;3.83;;;21.30;99.90;;;;;;8323495;28;20213;-63
2023/08/13 19:55:32;;;;;;;5.17;4.77;;;21.20;99.90;;;;;;8322673;28;20209;-63
2023/08/13 19:59:33;;;;;;;6.27;4.90;;;21.20;99.90;;;;;;8323782;28;20205;-63
2023/08/13 20:03:34;;;;;;;4.83;4.43;;;21.20;99.90;;;;;;8314142;28;20194;-64
2023/08/13 20:07:35;;;;;;;4.90;4.23;;;21.10;99.90;;;;;;8320648;28;20712;-64
2023/08/13 20:11:36;;;;;;;4.07;3.73;;;21.10;99.90;;;;;;8318491;28;20206;-65
2023/08/13 20:15:37;;;;;;;4.33;3.93;;;21.00;99.90;;;;;;8321103;28;20183;-64
2023/08/13 20:19:37;;;;;;;3.80;3.40;;;20.90;99.90;;;;;;8329017;28;20190;-66
2023/08/13 20:23:38;;;;;;;4.60;4.20;;;20.80;99.90;;;;;;8326822;28;20267;-66
2023/08/13 20:27:39;;;;;;;5.10;3.90;;;20.70;99.90;;;;;;8324735;28;20182;-67
2023/08/13 20:31:41;;;;;;;4.43;4.03;;;20.70;99.90;;;;;;8330776;28;20232;-69
2023/08/13 20:35:41;;;;;;;3.70;3.40;;;20.70;99.90;;;;;;8329594;28;20186;-68
2023/08/13 20:39:42;;;;;;;3.73;3.40;;;20.70;99.90;;;;;;8325578;28;20215;-68
2023/08/13 20:43:43;;;;;;;3.50;3.20;;;20.80;99.90;;;;;;8323542;28;20182;-67
2023/08/13 20:47:45;;;;;;;3.53;3.07;;;20.80;99.90;;;;;;8325162;28;20187;-66
2023/08/13 20:51:46;;;;;;;3.43;3.13;;;20.70;99.90;;;;;;8326968;28;20189;-67
2023/08/13 20:55:49;;;;;;;3.63;3.33;;;20.70;99.90;;;;;;8324230;28;20198;-69
2023/08/13 20:59:50;;;;;;;3.50;3.17;;;20.60;99.90;;;;;;8326843;28;20190;-66
2023/08/13 21:03:51;;;;;;;3.60;3.30;;;20.60;99.90;;;;;;8323506;28;20214;-67